Time;durP1;ratioP1;P1;durP2;ratioP2;P2;SDS_P1;SDS_P2;PMS_P1;PMS_P2;Temp;Humidity;BMP_temperature;BMP_pressure;BME280_temperature;BME280_humidity;BME280_pressure;Samples;Min_cycle;Max_cycle;Signal;HPM_P1;HPM_P2
2021/05/05 08:36:13;;;;;;;8.70;2.50;;;7.80;99.90;;;;;;4908034;28;20047;-73
2021/05/05 08:38:41;;;;;;;8.60;2.60;;;7.50;99.90;;;;;;5055965;28;20025;-74
2021/05/05 08:41:10;;;;;;;8.18;2.40;;;7.30;99.90;;;;;;5056307;28;20120;-75
2021/05/05 08:43:38;;;;;;;3.58;1.52;;;7.10;99.90;;;;;;5038422;28;20429;-76
2021/05/05 08:46:08;;;;;;;5.70;2.55;;;7.20;99.90;;;;;;5056388;28;20405;-75
2021/05/05 08:48:36;;;;;;;5.40;1.75;;;7.20;99.90;;;;;;5055927;28;20028;-74
2021/05/05 08:51:08;;;;;;;4.20;1.70;;;7.30;99.90;;;;;;5056434;28;20067;-69
2021/05/05 08:53:37;;;;;;;16.02;2.95;;;7.30;99.90;;;;;;5056055;28;20371;-70
2021/05/05 08:56:05;;;;;;;6.53;2.00;;;7.20;99.90;;;;;;5056443;28;20035;-69
2021/05/05 08:58:33;;;;;;;5.63;3.30;;;7.10;99.90;;;;;;5056514;28;20036;-70
2021/05/05 09:01:04;;;;;;;5.82;2.03;;;6.90;99.90;;;;;;5057383;28;20017;-70
2021/05/05 09:03:43;;;;;;;7.40;3.08;;;6.80;99.90;;;;;;5060308;28;20021;-68
2021/05/05 09:06:13;;;;;;;5.47;2.92;;;6.80;99.90;;;;;;5060108;28;20025;-70
2021/05/05 09:08:49;;;;;;;3.58;2.30;;;7.00;99.90;;;;;;5060188;28;20021;-69
2021/05/05 09:11:17;;;;;;;4.35;2.63;;;7.10;99.90;;;;;;5060066;28;20329;-69
2021/05/05 09:13:53;;;;;;;5.43;2.75;;;7.20;99.90;;;;;;5042052;28;20033;-71
2021/05/05 09:16:23;;;;;;;7.78;3.33;;;7.40;99.90;;;;;;5059106;28;20025;-72
2021/05/05 09:18:54;;;;;;;7.80;2.97;;;7.50;99.90;;;;;;5059571;28;20032;-70
2021/05/05 09:21:26;;;;;;;5.18;3.63;;;7.60;99.90;;;;;;5058968;28;20025;-71
2021/05/05 09:24:19;;;;;;;3.28;1.98;;;7.70;99.90;;;;;;5058988;28;20021;-70
2021/05/05 09:26:49;;;;;;;4.85;2.58;;;7.90;99.90;;;;;;5059021;28;20017;-70
2021/05/05 09:29:18;;;;;;;5.35;3.00;;;8.00;99.90;;;;;;5059475;28;20096;-73
2021/05/05 09:31:45;;;;;;;7.28;2.53;;;7.90;99.90;;;;;;5041381;28;20025;-69
2021/05/05 09:34:13;;;;;;;7.53;2.63;;;7.90;99.90;;;;;;5059164;28;20021;-70
2021/05/05 09:37:02;;;;;;;9.93;2.65;;;8.10;99.90;;;;;;5060182;28;20036;-69
2021/05/05 09:39:33;;;;;;;7.13;2.47;;;8.20;99.90;;;;;;5059715;28;20017;-72
2021/05/05 09:42:02;;;;;;;5.05;2.78;;;8.30;99.90;;;;;;5059760;28;20370;-71
2021/05/05 09:44:30;;;;;;;5.57;1.65;;;8.40;99.90;;;;;;5059475;28;20036;-71
2021/05/05 09:46:59;;;;;;;5.68;1.67;;;8.50;99.90;;;;;;5059502;28;20416;-71
2021/05/05 09:49:36;;;;;;;6.75;2.35;;;8.70;99.90;;;;;;5059438;28;20021;-70
2021/05/05 09:52:15;;;;;;;8.43;2.20;;;8.70;99.90;;;;;;5059340;28;20017;-70
2021/05/05 09:55:03;;;;;;;5.88;1.75;;;8.60;99.90;;;;;;5058732;28;20029;-71
2021/05/05 09:57:37;;;;;;;3.53;1.30;;;8.60;98.80;;;;;;5058737;28;20374;-71
2021/05/05 10:00:16;;;;;;;4.38;1.23;;;8.70;99.10;;;;;;5058472;28;20104;-71
2021/05/05 10:02:56;;;;;;;5.88;1.45;;;8.90;99.50;;;;;;5058810;28;20033;-69
2021/05/05 10:05:34;;;;;;;7.53;1.80;;;9.00;99.30;;;;;;5058185;28;20094;-71
2021/05/05 10:08:04;;;;;;;5.35;1.27;;;9.00;99.00;;;;;;5058508;28;20301;-72
2021/05/05 10:10:40;;;;;;;6.05;1.65;;;9.00;97.30;;;;;;5040969;28;20021;-71
2021/05/05 10:13:09;;;;;;;10.03;2.23;;;8.90;98.70;;;;;;5057671;28;20021;-71
2021/05/05 10:15:38;;;;;;;3.95;1.30;;;8.90;99.00;;;;;;5058979;28;20294;-70
2021/05/05 10:18:12;;;;;;;4.45;1.65;;;8.80;98.50;;;;;;5059373;28;20071;-70
2021/05/05 10:20:45;;;;;;;3.75;2.40;;;8.80;99.00;;;;;;5058798;28;20025;-70
2021/05/05 10:23:20;;;;;;;6.80;2.25;;;8.90;99.90;;;;;;5059015;28;20031;-70
2021/05/05 10:25:50;;;;;;;6.18;1.90;;;9.00;99.90;;;;;;5058949;28;20021;-71
2021/05/05 10:28:19;;;;;;;3.88;1.58;;;9.20;99.90;;;;;;5058669;28;20021;-70
2021/05/05 10:30:48;;;;;;;6.68;1.80;;;9.40;99.00;;;;;;5058661;28;20112;-71
2021/05/05 10:33:25;;;;;;;3.00;1.70;;;9.60;99.40;;;;;;5058796;28;20321;-71
2021/05/05 10:35:53;;;;;;;5.13;1.83;;;9.90;98.60;;;;;;5057901;28;20044;-71
2021/05/05 10:38:39;;;;;;;4.20;1.60;;;10.20;98.70;;;;;;5057671;28;20017;-71
2021/05/05 10:41:10;;;;;;;7.80;1.75;;;10.30;96.90;;;;;;5057430;28;20039;-70
2021/05/05 10:43:48;;;;;;;4.18;1.55;;;10.20;94.70;;;;;;5039758;28;20025;-69
2021/05/05 10:46:42;;;;;;;4.97;2.00;;;10.00;95.50;;;;;;5057620;28;20021;-71
2021/05/05 10:49:13;;;;;;;3.85;1.83;;;9.90;96.50;;;;;;5057858;28;20031;-70
2021/05/05 10:51:50;;;;;;;10.18;2.30;;;9.80;96.20;;;;;;5057325;28;20025;-71
2021/05/05 10:54:19;;;;;;;3.60;1.88;;;9.80;96.20;;;;;;5057254;28;20028;-72
2021/05/05 10:57:09;;;;;;;2.85;1.40;;;9.70;97.50;;;;;;5057706;28;20053;-70
2021/05/05 10:59:58;;;;;;;3.15;1.30;;;9.90;97.10;;;;;;5040553;28;20409;-70
2021/05/05 11:02:46;;;;;;;5.07;1.38;;;10.20;96.30;;;;;;5040474;28;20444;-72
2021/05/05 11:05:18;;;;;;;4.43;1.98;;;10.30;95.40;;;;;;5058666;28;20101;-72
2021/05/05 11:07:52;;;;;;;4.07;1.42;;;10.20;94.70;;;;;;5040358;28;20124;-74
2021/05/05 11:10:33;;;;;;;6.53;1.75;;;10.30;96.10;;;;;;5058013;28;20373;-74
2021/05/05 11:13:02;;;;;;;3.53;1.50;;;10.40;95.50;;;;;;5040341;28;20028;-74
2021/05/05 11:15:43;;;;;;;4.85;1.05;;;10.80;95.30;;;;;;5039775;28;20115;-74
2021/05/05 11:18:35;;;;;;;5.25;1.20;;;11.00;94.10;;;;;;5057668;28;20020;-74
2021/05/05 11:21:09;;;;;;;2.63;1.30;;;11.20;92.70;;;;;;5057462;28;20024;-74
2021/05/05 11:23:42;;;;;;;3.83;0.90;;;11.30;92.10;;;;;;5056920;28;20021;-75
2021/05/05 11:26:17;;;;;;;4.10;1.17;;;11.40;90.90;;;;;;5057453;28;20017;-74
2021/05/05 11:28:59;;;;;;;2.97;1.27;;;11.30;90.70;;;;;;5057259;28;20543;-74
2021/05/05 11:31:49;;;;;;;2.63;1.02;;;11.30;91.40;;;;;;5057898;28;20036;-74
2021/05/05 11:34:23;;;;;;;3.13;1.42;;;11.20;89.60;;;;;;5057758;28;20025;-74
2021/05/05 11:37:01;;;;;;;6.25;1.20;;;11.00;90.40;;;;;;5057662;28;20122;-74
2021/05/05 11:39:38;;;;;;;2.88;1.17;;;10.80;90.60;;;;;;5058380;28;20078;-74
2021/05/05 11:42:15;;;;;;;2.92;0.98;;;10.80;90.90;;;;;;5058101;28;20083;-74
2021/05/05 11:44:44;;;;;;;3.50;1.00;;;11.00;92.20;;;;;;5057674;28;20047;-74
2021/05/05 11:47:16;;;;;;;5.80;1.15;;;11.20;90.50;;;;;;5057767;28;20028;-74
2021/05/05 11:50:11;;;;;;;3.70;1.08;;;11.20;90.70;;;;;;5057764;28;20071;-74
2021/05/05 11:52:44;;;;;;;2.22;0.70;;;11.20;91.40;;;;;;5038626;28;20025;-74
2021/05/05 11:55:11;;;;;;;3.33;1.25;;;11.10;92.90;;;;;;5056605;28;20090;-74
2021/05/05 11:57:48;;;;;;;2.35;1.10;;;11.20;93.20;;;;;;5056807;28;20025;-75
2021/05/05 12:00:34;;;;;;;2.53;0.90;;;11.40;92.20;;;;;;5056995;28;20301;-74
2021/05/05 12:03:07;;;;;;;3.53;0.95;;;11.60;91.30;;;;;;5056494;28;20032;-74
2021/05/05 12:05:38;;;;;;;5.43;1.20;;;11.70;90.70;;;;;;5056491;28;20018;-74
2021/05/05 12:08:10;;;;;;;5.15;0.90;;;11.60;91.60;;;;;;5057768;28;20405;-74
2021/05/05 12:10:58;;;;;;;1.88;0.80;;;11.50;92.00;;;;;;5056423;28;20025;-74
2021/05/05 12:13:27;;;;;;;4.07;1.55;;;11.50;92.30;;;;;;5057842;28;20104;-75
2021/05/05 12:16:04;;;;;;;4.53;1.70;;;11.50;92.10;;;;;;5039588;28;20051;-75
2021/05/05 12:18:37;;;;;;;4.13;0.68;;;11.50;91.80;;;;;;5057537;28;20021;-75
2021/05/05 12:21:09;;;;;;;3.67;0.80;;;11.40;91.00;;;;;;5057149;28;20032;-75
2021/05/05 12:23:42;;;;;;;4.15;1.02;;;11.20;91.10;;;;;;5057387;28;20049;-75
2021/05/05 12:26:27;;;;;;;3.28;0.85;;;11.00;91.80;;;;;;5057370;28;20436;-75
2021/05/05 12:28:57;;;;;;;4.93;1.10;;;10.80;92.00;;;;;;5057590;28;20025;-75
2021/05/05 12:31:27;;;;;;;2.55;1.15;;;10.70;92.80;;;;;;5056919;28;20029;-75
2021/05/05 12:33:57;;;;;;;3.10;0.90;;;10.70;92.20;;;;;;5056501;28;20321;-75
2021/05/05 12:36:31;;;;;;;2.47;0.60;;;10.70;92.30;;;;;;5056754;28;20126;-75
2021/05/05 12:39:01;;;;;;;3.17;0.70;;;11.00;93.20;;;;;;5060587;28;20032;-75
2021/05/05 12:41:51;;;;;;;4.97;0.60;;;11.20;91.20;;;;;;5060021;28;20033;-75
2021/05/05 12:44:19;;;;;;;2.05;0.52;;;11.50;92.30;;;;;;5060080;28;20032;-75
2021/05/05 12:46:57;;;;;;;1.80;0.52;;;11.90;92.20;;;;;;5059969;28;20024;-75
2021/05/05 12:49:29;;;;;;;2.13;1.20;;;12.10;90.80;;;;;;5060145;28;20022;-75
2021/05/05 12:51:58;;;;;;;0.95;0.50;;;12.10;91.30;;;;;;5042499;28;20367;-75
2021/05/05 12:54:30;;;;;;;2.88;0.73;;;11.60;90.30;;;;;;5060980;28;20035;-75
2021/05/05 12:56:59;;;;;;;1.90;0.60;;;10.90;91.80;;;;;;5061002;28;20075;-75
2021/05/05 12:59:30;;;;;;;2.75;1.00;;;10.10;94.80;;;;;;5060849;28;20104;-75
2021/05/05 13:02:06;;;;;;;2.58;0.80;;;9.30;97.30;;;;;;5060865;28;20025;-75
2021/05/05 13:04:39;;;;;;;2.22;0.68;;;8.80;99.70;;;;;;5060903;28;20017;-75
2021/05/05 13:07:26;;;;;;;2.55;0.80;;;8.60;99.90;;;;;;5060457;28;20021;-75
2021/05/05 13:10:24;;;;;;;1.17;0.73;;;8.80;99.90;;;;;;5060716;28;20455;-75
2021/05/05 13:13:05;;;;;;;1.08;0.50;;;9.10;99.90;;;;;;5047517;28;20065;-75
2021/05/05 13:18:32;;;;;;;4.95;0.80;;;9.50;99.90;;;;;;5059777;28;20028;-75
2021/05/05 13:30:12;;;;;;;2.53;0.60;;;9.80;94.50;;;;;;5059216;28;20028;-75
2021/05/05 13:32:45;;;;;;;11.77;1.90;;;10.30;94.80;;;;;;5059069;28;20032;-75
2021/05/05 13:35:32;;;;;;;4.50;0.75;;;10.70;92.70;;;;;;5059497;28;20052;-75
2021/05/05 13:38:01;;;;;;;1.80;0.40;;;11.10;91.90;;;;;;5059929;28;20021;-75
2021/05/05 13:40:31;;;;;;;2.63;0.82;;;11.60;89.50;;;;;;5042291;28;20033;-75
2021/05/05 13:43:07;;;;;;;3.28;0.70;;;12.10;90.00;;;;;;5060302;28;20052;-75
2021/05/05 13:45:39;;;;;;;2.85;1.13;;;12.20;86.50;;;;;;5060491;28;20029;-75
2021/05/05 13:48:26;;;;;;;2.25;0.77;;;12.20;86.60;;;;;;5059813;28;20025;-75
2021/05/05 13:50:56;;;;;;;5.97;0.82;;;11.90;88.10;;;;;;5059750;28;20017;-75
2021/05/05 13:53:24;;;;;;;2.83;0.60;;;11.50;89.80;;;;;;5059161;28;20138;-75
2021/05/05 13:55:53;;;;;;;5.90;0.77;;;11.20;91.00;;;;;;5059177;28;20017;-75
2021/05/05 13:58:21;;;;;;;4.38;0.95;;;11.20;91.40;;;;;;5059267;28;20052;-75
2021/05/05 14:00:49;;;;;;;6.15;0.70;;;11.00;91.00;;;;;;5058623;28;20024;-75
2021/05/05 14:03:17;;;;;;;3.88;1.05;;;10.80;92.60;;;;;;5059427;28;20290;-75
2021/05/05 14:05:50;;;;;;;6.32;1.27;;;11.00;92.10;;;;;;5058720;28;20036;-75
2021/05/05 14:08:19;;;;;;;6.20;0.80;;;10.90;92.10;;;;;;5058383;28;20455;-75
2021/05/05 14:10:47;;;;;;;3.47;0.70;;;10.50;93.60;;;;;;5058461;28;20017;-75
2021/05/05 14:13:15;;;;;;;3.05;0.90;;;10.00;95.90;;;;;;5041087;28;20029;-75
2021/05/05 14:15:43;;;;;;;2.30;0.75;;;9.30;98.30;;;;;;5059636;28;20018;-74
2021/05/05 14:18:11;;;;;;;3.63;0.75;;;8.80;99.90;;;;;;5059230;28;20021;-74
2021/05/05 14:20:39;;;;;;;4.18;1.00;;;8.10;99.90;;;;;;5059227;28;20075;-74
2021/05/05 14:23:07;;;;;;;3.60;1.38;;;7.60;99.90;;;;;;5059368;28;20347;-74
2021/05/05 14:25:35;;;;;;;2.40;0.75;;;7.40;99.90;;;;;;5059286;28;20020;-74
2021/05/05 14:28:04;;;;;;;2.72;0.90;;;7.00;99.90;;;;;;5058981;28;20018;-75
2021/05/05 14:30:33;;;;;;;2.03;0.95;;;6.90;99.90;;;;;;5059064;28;20021;-74
2021/05/05 14:33:02;;;;;;;4.97;1.65;;;6.80;99.90;;;;;;5041266;28;20116;-75
2021/05/05 14:35:32;;;;;;;3.60;0.90;;;6.80;99.90;;;;;;5058049;28;20049;-75
2021/05/05 14:40:34;;;;;;;4.60;1.00;;;7.10;99.90;;;;;;5058098;28;20120;-74
2021/05/05 14:43:08;;;;;;;3.78;0.80;;;7.30;99.90;;;;;;5057999;28;20032;-75
2021/05/05 14:48:15;;;;;;;6.03;1.55;;;7.80;99.90;;;;;;5057551;28;20025;-77
2021/05/05 14:50:47;;;;;;;5.85;1.50;;;8.20;99.90;;;;;;5058582;28;20071;-72
2021/05/05 14:53:18;;;;;;;11.10;1.58;;;8.50;99.90;;;;;;5057686;28;20021;-77
2021/05/05 14:55:47;;;;;;;3.90;1.15;;;9.00;99.90;;;;;;5057777;28;20428;-75
2021/05/05 14:58:23;;;;;;;5.55;1.77;;;9.70;99.90;;;;;;5058568;28;20029;-73
2021/05/05 15:00:52;;;;;;;5.32;1.20;;;10.00;99.90;;;;;;5057956;28;20024;-71
2021/05/05 15:03:21;;;;;;;6.50;1.25;;;10.30;99.90;;;;;;5058244;28;20059;-72
2021/05/05 15:05:56;;;;;;;7.63;1.58;;;10.40;99.70;;;;;;5058203;28;20096;-73
2021/05/05 15:08:38;;;;;;;6.97;1.05;;;10.40;97.90;;;;;;5058080;28;20017;-74
2021/05/05 15:11:31;;;;;;;6.05;1.70;;;10.50;96.80;;;;;;5058217;28;20112;-75
2021/05/05 15:30:16;;;;;;;3.72;1.13;;;14.20;86.60;;;;;;5057332;28;20024;-75
2021/05/05 15:35:35;;;;;;;8.13;1.90;;;13.70;84.30;;;;;;5056587;28;20099;-77
2021/05/05 15:40:42;;;;;;;6.70;1.30;;;11.70;90.80;;;;;;5057791;28;20448;-76
2021/05/05 15:45:56;;;;;;;8.85;1.27;;;11.70;92.00;;;;;;5057534;28;20025;-75
2021/05/05 15:48:26;;;;;;;8.68;1.50;;;12.80;90.60;;;;;;5057378;28;20025;-75
2021/05/05 15:50:54;;;;;;;8.95;2.85;;;13.90;84.80;;;;;;5057831;28;20025;-75
2021/05/05 15:53:29;;;;;;;7.72;1.50;;;14.80;80.00;;;;;;5057728;28;20017;-76
2021/05/05 15:56:00;;;;;;;6.18;1.08;;;15.30;77.20;;;;;;5057620;28;20013;-76
2021/05/05 15:58:30;;;;;;;7.60;1.73;;;15.70;74.50;;;;;;5056524;28;20028;-75
2021/05/05 16:14:34;;;;;;;2.63;0.93;;;10.90;85.50;;;;;;5056833;28;20031;-77
2021/05/05 16:17:04;;;;;;;4.03;1.33;;;11.00;87.20;;;;;;5056366;28;20025;-77
2021/05/05 16:19:36;;;;;;;6.80;1.65;;;11.70;83.20;;;;;;5057016;28;20053;-77
2021/05/05 16:22:17;;;;;;;6.47;1.65;;;12.60;80.60;;;;;;5056996;28;20025;-75
2021/05/05 16:31:17;;;;;;;4.60;1.03;;;15.10;66.30;;;;;;5057510;28;20036;-76
2021/05/05 16:45:18;;;;;;;4.03;1.08;;;16.10;58.90;;;;;;5056133;28;20051;-76
2021/05/05 16:50:14;;;;;;;3.80;1.15;;;15.30;56.90;;;;;;5055968;28;20047;-76
2021/05/05 16:55:37;;;;;;;8.52;1.50;;;14.00;60.50;;;;;;5056380;28;20087;-76
2021/05/05 16:58:26;;;;;;;7.57;1.27;;;13.90;61.30;;;;;;5055820;28;20139;-77
2021/05/05 17:01:20;;;;;;;2.78;0.95;;;14.40;58.50;;;;;;5056631;28;20032;-78
2021/05/05 17:09:22;;;;;;;8.07;1.48;;;15.50;56.50;;;;;;5057141;28;20029;-78
2021/05/05 17:11:51;;;;;;;6.00;1.38;;;15.70;54.80;;;;;;5039006;28;20025;-78
2021/05/05 17:14:18;;;;;;;6.57;1.70;;;15.90;55.60;;;;;;5056825;28;20025;-78
2021/05/05 17:16:45;;;;;;;5.47;1.50;;;15.90;55.80;;;;;;5056800;28;20104;-78
2021/05/05 17:19:22;;;;;;;12.38;2.17;;;16.00;55.70;;;;;;5039010;28;20025;-78
2021/05/05 17:21:54;;;;;;;7.63;1.25;;;15.90;55.00;;;;;;5055983;28;20017;-75
2021/05/05 17:24:30;;;;;;;8.90;1.83;;;15.80;55.00;;;;;;5059344;28;20440;-75
2021/05/05 17:27:05;;;;;;;;;;;15.70;55.40;;;;;;5059750;28;20028;-75
2021/05/05 17:43:20;;;;;;;11.65;1.67;;;10.10;71.50;;;;;;5060484;28;20126;-75
2021/05/05 18:00:45;;;;;;;;;;;12.90;61.00;;;;;;5060339;28;19911;-76
2021/05/05 18:11:12;;;;;;;;;;;12.70;60.40;;;;;;5058935;28;20213;-76
2021/05/05 18:19:15;;;;;;;;;;;11.30;65.70;;;;;;5058827;28;19951;-76
2021/05/05 18:21:57;;;;;;;;;;;10.70;68.50;;;;;;5059325;28;19930;-75
2021/05/05 18:27:05;;;;;;;;;;;9.60;73.50;;;;;;5059832;28;19905;-75
2021/05/05 18:29:39;;;;;;;;;;;9.20;74.40;;;;;;5059513;28;19970;-75
2021/05/05 18:32:08;;;;;;;;;;;8.90;75.30;;;;;;5059722;28;19944;-76
2021/05/05 18:34:35;;;;;;;;;;;8.60;77.20;;;;;;5058101;28;19944;-75
2021/05/05 18:37:03;;;;;;;;;;;8.40;77.40;;;;;;5059471;28;19975;-75
2021/05/05 18:39:42;;;;;;;;;;;8.20;80.20;;;;;;5040926;28;20362;-75
2021/05/05 18:42:20;;;;;;;;;;;8.00;80.90;;;;;;5058267;28;19959;-75
2021/05/05 19:07:06;;;;;;;;;;;6.90;90.00;;;;;;5058988;28;19943;-76
2021/05/05 19:09:48;;;;;;;;;;;6.80;89.60;;;;;;5057862;28;19911;-76
2021/05/05 19:15:31;;;;;;;;;;;6.70;90.10;;;;;;5058683;28;19912;-76
2021/05/05 19:38:56;;;;;;;;;;;6.20;94.40;;;;;;5057240;28;19908;-76
2021/05/05 20:06:46;;;;;;;;;;;5.30;99.90;;;;;;5016166;28;19938;-76
2021/05/05 20:21:55;;;;;;;;;;;4.70;99.90;;;;;;5057868;28;19963;-76
2021/05/05 20:52:12;;;;;;;;;;;4.40;99.90;;;;;;5056385;28;19972;-76
2021/05/05 20:55:20;;;;;;;;;;;4.40;99.90;;;;;;5056189;28;19912;-76
2021/05/05 21:11:51;;;;;;;;;;;4.00;99.90;;;;;;5060898;28;19980;-76
2021/05/05 21:15:16;;;;;;;;;;;4.00;99.90;;;;;;5061169;28;19944;-76
2021/05/05 22:01:01;;;;;;;;;;;3.30;99.90;;;;;;5059940;28;20370;-76
2021/05/05 23:22:26;;;;;;;;;;;3.30;99.90;;;;;;5058015;28;19962;-76
2021/05/05 23:27:53;;;;;;;;;;;3.30;99.90;;;;;;5057503;28;19954;-76
2021/05/05 23:30:35;;;;;;;;;;;3.20;99.90;;;;;;5057809;28;19904;-76
